Главная страница
METAR-TAF:

METAR-TAF

Аэропорты :

Триполи, Ливия

широта: 32-54N, долгота: 13-17E, высота над уровнем моря: 11 м

METAR: отсутствует

Время: 03:13 (01:13 UTC)

Прогноз

Эта сводка был подготовлена 20 часа и 13 минут назад, в 05:00 UTC
Прогноз действительный с 18-го 06 UTC до 19-го 06 UTC
Ветер 2 Узел переменных направлений
Видимость 10 км и более
небольшая облачность на высоте 2500 фута
изменения
С 18-го 09 UTC до 18-го 11 UTC
Ветер 12 Узел от восточно-северо-восточный
изменения
С 18-го 20 UTC до 18-го 22 UTC
Ветер 10 Узел от восточно-юго-восточный

TAF: HLLM 180500Z 1806/1906 VRB02KT 9999 FEW025 BECMG 1809/1811 06012KT BECMG 1820/1822 12010KT

Метеонаблюдения и прогнозы для более 4000 аэропортов (сводки METAR и TAF).

Имеющиеся станции представлены на карте желтыми и красными точками.

Чтобы увидеть название станции, наведите на нее мышь.

Затем щелкните, чтобы увидеть метеонаблюдения и метеопрогнозы.

Управление картой: чтобы увеличить масштаб, щелкните зеленые кнопки с черным крестиком; чтобы уменьшить масштаб, щелкните зеленую кнопку с тире; для просмотра соседних карт щелкайте зеленые стрелки.


METAR-TAF: